Nordic Philip — 5BZH2 — position and weather

sailwx.info

Track history (hours):
 
Tides and Currents Weather Stations Pressure Air Temp Water Temp Dewpoint Dewpoint Depression Visibility Wind Speed Wind Dir Waves Ship Positions

Nordic Philip

Last reported at 2015-Feb-27 03:33 UTC. Time now 2015-Feb-27 04:10 UTC.
Position N 55°15' E 014°20'.

Length 151 m; draft 8.1 m.

Type: Ship (hazmat cat A). MMSI: 212018000.

Date/timePositionNaut miles runAvg speedWind from/ knotsBaromVisibWave heightAir tempDewpointWater temp
2015-Feb-27 03:33N 55°15' E 014°20'1313.2
2015-Feb-27 02:33N 55°26' E 014°35'1313.2
2015-Feb-27 01:33N 55°32' E 014°55'1313.0
2015-Feb-27 00:33N 55°39' E 015°15'1313.1
2015-Feb-26 23:33N 55°46' E 015°35'1512.8
2015-Feb-26 22:24N 55°53' E 015°58'32012.8
2015-Feb-25 21:22N 59°36' E 023°10'1013.0
2015-Feb-25 20:33N 59°39' E 023°30'1313.0
2015-Feb-25 19:33N 59°42' E 023°54'1513.0
2015-Feb-25 18:24N 59°47' E 024°23'5212.9
2015-Feb-25 14:20N 60°02' E 026°03'1012.9
2015-Feb-25 13:33N 60°07' E 026°19'1312.7
2015-Feb-25 12:34N 60°18' E 026°33'1312.9
2015-Feb-25 11:33N 60°25' E 026°55'0 0.3
2015-Feb-25 10:33N 60°25' E 026°54'0 0.0
2015-Feb-25 09:33N 60°25' E 026°54'0 0.0
2015-Feb-25 08:33N 60°25' E 026°54'0 0.0
2015-Feb-25 07:33N 60°25' E 026°54'0 0.0
2015-Feb-25 06:33N 60°25' E 026°54'0 0.0
2015-Feb-25 05:33N 60°25' E 026°54'0 0.0
2015-Feb-25 04:33N 60°25' E 026°54'0 0.0
2015-Feb-25 03:33N 60°25' E 026°54'0 0.0
2015-Feb-25 02:33N 60°25' E 026°54'0 0.0
2015-Feb-25 01:33N 60°25' E 026°54'8 8.0
2015-Feb-25 00:33N 60°22' E 026°40'1413.7
2015-Feb-24 23:33N 60°11' E 026°22'1111.2
2015-Feb-24 22:34N 60°02' E 026°35'1413.4
2015-Feb-24 21:32N 59°59' E 027°02'1313.0
2015-Feb-24 20:32N 60°06' E 027°24'8211.8
2015-Feb-24 13:32N 59°54' E 030°07'3 0.3
2015-Feb-24 04:10N 59°54' E 030°14'1 1.5
2015-Feb-24 03:19N 59°52' E 030°12'0 0.0
2015-Feb-23 04:22N 59°52' E 030°12'3 3.1
2015-Feb-23 03:32N 59°54' E 030°08'100 3.7
2015-Feb-22 00:10N 59°59' E 026°47'1015.8
2015-Feb-21 23:33N 59°58' E 026°28'4816.0
2015-Feb-21 20:32N 59°47' E 024°54'1615.7
2015-Feb-21 19:33N 59°43' E 024°24'3216.0
2015-Feb-21 17:33N 59°33' E 023°24'34615.7
2015-Feb-20 19:33N 55°39' E 015°28'1616.1
2015-Feb-20 18:33N 55°31' E 015°03'1616.3
2015-Feb-20 17:33N 55°23' E 014°38'1616.1
2015-Feb-20 16:33N 55°11' E 014°19'1615.6
2015-Feb-20 15:33N 55°00' E 014°00'1716.7
2015-Feb-20 14:33N 54°55' E 013°33'1616.1
2015-Feb-20 13:33N 54°49' E 013°07'1615.7
2015-Feb-20 12:33N 54°43' E 012°41'1515.4
2015-Feb-20 11:33N 54°35' E 012°20'1414.1
2015-Feb-20 10:33N 54°24' E 012°03'1615.7
2015-Feb-20 09:33N 54°27' E 011°36'1615.8
2015-Feb-20 08:33N 54°34' E 011°12'1515.4
2015-Feb-20 07:33N 54°34' E 010°45'1515.0
2015-Feb-20 06:33N 54°30' E 010°21'1110.5
2015-Feb-20 05:33N 54°22' E 010°09'3 3.4
2015-Feb-20 04:33N 54°22' E 010°03'5 4.5
2015-Feb-20 03:33N 54°21' E 009°55'7 7.1
2015-Feb-20 02:33N 54°20' E 009°43'5 4.6
2015-Feb-20 01:27N 54°16' E 009°37'4 4.6
2015-Feb-20 00:29N 54°12' E 009°33'6 6.5
2015-Feb-19 23:33N 54°10' E 009°24'6 5.8
2015-Feb-19 22:33N 54°05' E 009°19'8 8.0
2015-Feb-19 21:33N 53°57' E 009°14'5 4.9
2015-Feb-19 20:33N 53°54' E 009°09'1 1.4
2015-Feb-19 19:33N 53°53' E 009°11'1616.0
2015-Feb-19 18:33N 53°42' E 009°30'1414.4
2015-Feb-19 17:33N 53°33' E 009°49'4 3.8
2015-Feb-19 16:29N 53°32' E 009°55'0 0.0
2015-Feb-19 15:32N 53°32' E 009°55'0 0.0
2015-Feb-19 14:32N 53°32' E 009°55'0 0.0
2015-Feb-19 13:29N 53°32' E 009°55'0 0.0
2015-Feb-19 12:32N 53°32' E 009°55'0 0.0
2015-Feb-19 11:32N 53°32' E 009°55'0 0.0
2015-Feb-19 10:29N 53°32' E 009°55'0 0.0
2015-Feb-19 09:29N 53°32' E 009°55'0 0.1
2015-Feb-19 08:32N 53°32' E 009°55'0 0.1
2015-Feb-19 07:32N 53°32' E 009°56'0 0.0
2015-Feb-19 06:32N 53°32' E 009°56'0 0.0
2015-Feb-19 05:32N 53°32' E 009°56'0 0.0
2015-Feb-19 04:29N 53°32' E 009°56'0 0.0
2015-Feb-19 03:32N 53°32' E 009°56'0 0.0
2015-Feb-19 02:32N 53°32' E 009°56'0 0.0
2015-Feb-19 01:32N 53°32' E 009°56'0 0.0
2015-Feb-19 00:29N 53°32' E 009°56'0 0.0
2015-Feb-18 23:32N 53°32' E 009°56'0 0.0
2015-Feb-18 22:29N 53°32' E 009°56'0 0.0
2015-Feb-18 21:32N 53°32' E 009°56'0 0.3
2015-Feb-18 20:33N 53°32' E 009°55'1 1.4
2015-Feb-18 19:32N 53°30' E 009°56'0 0.0
2015-Feb-18 18:30N 53°30' E 009°56'0 0.0
2015-Feb-18 17:29N 53°30' E 009°56'0 0.0
2015-Feb-18 16:33N 53°30' E 009°56'0 0.0
2015-Feb-18 15:29N 53°30' E 009°56'0 0.0
2015-Feb-18 14:31N 53°30' E 009°56'0 0.0
2015-Feb-18 13:30N 53°30' E 009°56'0 0.0
2015-Feb-18 12:32N 53°30' E 009°56'0 0.0
2015-Feb-18 11:29N 53°30' E 009°56'0 0.0
2015-Feb-18 10:33N 53°30' E 009°56'0 0.0
2015-Feb-18 09:31N 53°30' E 009°56'0 0.0
2015-Feb-18 08:33N 53°30' E 009°56'0 0.0
2015-Feb-18 07:31N 53°30' E 009°56'0 0.0
2015-Feb-18 06:29N 53°30' E 009°56'0 0.0
2015-Feb-18 05:33N 53°31' E 009°56'6 6.4
2015-Feb-18 04:33N 53°34' E 009°47'1111.3
2015-Feb-18 03:34N 53°40' E 009°31'1313.3
2015-Feb-18 02:33N 53°51' E 009°19'1212.3
2015-Feb-18 01:33N 53°51' E 008°58'1312.6
2015-Feb-18 00:34N 53°56' E 008°39'1515.0
2015-Feb-17 23:33N 53°60' E 008°14'1514.6
2015-Feb-17 22:33N 53°53' E 007°52'1414.1
2015-Feb-17 21:33N 53°45' E 008°12'1414.0
2015-Feb-17 20:33N 53°36' E 008°30'1 1.4
2015-Feb-17 19:32N 53°35' E 008°32'0 0.0
2015-Feb-17 17:32N 53°35' E 008°32'0 0.0
2015-Feb-17 16:32N 53°35' E 008°32'6 6.2
2015-Feb-17 15:33N 53°39' E 008°24'1413.9
2015-Feb-17 14:33N 53°49' E 008°07'10 9.0
2015-Feb-17 13:26N 53°58' E 007°59'1315.0
2015-Feb-17 12:34N 53°60' E 008°21'1616.0
2015-Feb-17 11:34N 53°52' E 008°45'1313.3
2015-Feb-17 10:33N 53°53' E 009°07'2 1.6
2015-Feb-17 09:33N 53°54' E 009°09'7 7.1
2015-Feb-17 08:33N 53°59' E 009°17'9 8.6
2015-Feb-17 07:32N 54°08' E 009°20'7 7.5
2015-Feb-17 06:33N 54°11' E 009°31'6 5.5
2015-Feb-17 05:29N 54°16' E 009°38'7 7.9
2015-Feb-17 04:33N 54°21' E 009°46'8 7.6
2015-Feb-17 03:33N 54°21' E 009°59'  
Track history (hours):
 
Tides and Currents Weather Stations Pressure Air Temp Water Temp Dewpoint Dewpoint Depression Visibility Wind Speed Wind Dir Waves Ship Positions

Nordic Philip

Last reported at 2015-Feb-27 03:33 UTC. Time now 2015-Feb-27 04:10 UTC.
Position N 55°15' E 014°20'.

Length 151 m; draft 8.1 m.

Type: Ship (hazmat cat A). MMSI: 212018000.

Date/timePositionNaut miles runAvg speedWind from/ knotsBaromVisibWave heightAir tempDewpointWater temp
2015-Feb-27 03:33N 55°15' E 014°20'1313.2
2015-Feb-27 02:33N 55°26' E 014°35'1313.2
2015-Feb-27 01:33N 55°32' E 014°55'1313.0
2015-Feb-27 00:33N 55°39' E 015°15'1313.1
2015-Feb-26 23:33N 55°46' E 015°35'1512.8
2015-Feb-26 22:24N 55°53' E 015°58'32012.8
2015-Feb-25 21:22N 59°36' E 023°10'1013.0
2015-Feb-25 20:33N 59°39' E 023°30'1313.0
2015-Feb-25 19:33N 59°42' E 023°54'1513.0
2015-Feb-25 18:24N 59°47' E 024°23'5212.9
2015-Feb-25 14:20N 60°02' E 026°03'1012.9
2015-Feb-25 13:33N 60°07' E 026°19'1312.7
2015-Feb-25 12:34N 60°18' E 026°33'1312.9
2015-Feb-25 11:33N 60°25' E 026°55'0 0.3
2015-Feb-25 10:33N 60°25' E 026°54'0 0.0
2015-Feb-25 09:33N 60°25' E 026°54'0 0.0
2015-Feb-25 08:33N 60°25' E 026°54'0 0.0
2015-Feb-25 07:33N 60°25' E 026°54'0 0.0
2015-Feb-25 06:33N 60°25' E 026°54'0 0.0
2015-Feb-25 05:33N 60°25' E 026°54'0 0.0
2015-Feb-25 04:33N 60°25' E 026°54'0 0.0
2015-Feb-25 03:33N 60°25' E 026°54'0 0.0
2015-Feb-25 02:33N 60°25' E 026°54'0 0.0
2015-Feb-25 01:33N 60°25' E 026°54'8 8.0
2015-Feb-25 00:33N 60°22' E 026°40'1413.7
2015-Feb-24 23:33N 60°11' E 026°22'1111.2
2015-Feb-24 22:34N 60°02' E 026°35'1413.4
2015-Feb-24 21:32N 59°59' E 027°02'1313.0
2015-Feb-24 20:32N 60°06' E 027°24'8211.8
2015-Feb-24 13:32N 59°54' E 030°07'3 0.3
2015-Feb-24 04:10N 59°54' E 030°14'1 1.5
2015-Feb-24 03:19N 59°52' E 030°12'0 0.0
2015-Feb-23 04:22N 59°52' E 030°12'3 3.1
2015-Feb-23 03:32N 59°54' E 030°08'100 3.7
2015-Feb-22 00:10N 59°59' E 026°47'1015.8
2015-Feb-21 23:33N 59°58' E 026°28'4816.0
2015-Feb-21 20:32N 59°47' E 024°54'1615.7
2015-Feb-21 19:33N 59°43' E 024°24'3216.0
2015-Feb-21 17:33N 59°33' E 023°24'34615.7
2015-Feb-20 19:33N 55°39' E 015°28'1616.1
2015-Feb-20 18:33N 55°31' E 015°03'1616.3
2015-Feb-20 17:33N 55°23' E 014°38'1616.1
2015-Feb-20 16:33N 55°11' E 014°19'1615.6
2015-Feb-20 15:33N 55°00' E 014°00'1716.7
2015-Feb-20 14:33N 54°55' E 013°33'1616.1
2015-Feb-20 13:33N 54°49' E 013°07'1615.7
2015-Feb-20 12:33N 54°43' E 012°41'1515.4
2015-Feb-20 11:33N 54°35' E 012°20'1414.1
2015-Feb-20 10:33N 54°24' E 012°03'1615.7
2015-Feb-20 09:33N 54°27' E 011°36'1615.8
2015-Feb-20 08:33N 54°34' E 011°12'1515.4
2015-Feb-20 07:33N 54°34' E 010°45'1515.0
2015-Feb-20 06:33N 54°30' E 010°21'1110.5
2015-Feb-20 05:33N 54°22' E 010°09'3 3.4
2015-Feb-20 04:33N 54°22' E 010°03'5 4.5
2015-Feb-20 03:33N 54°21' E 009°55'7 7.1
2015-Feb-20 02:33N 54°20' E 009°43'5 4.6
2015-Feb-20 01:27N 54°16' E 009°37'4 4.6
2015-Feb-20 00:29N 54°12' E 009°33'6 6.5
2015-Feb-19 23:33N 54°10' E 009°24'6 5.8
2015-Feb-19 22:33N 54°05' E 009°19'8 8.0
2015-Feb-19 21:33N 53°57' E 009°14'5 4.9
2015-Feb-19 20:33N 53°54' E 009°09'1 1.4
2015-Feb-19 19:33N 53°53' E 009°11'1616.0
2015-Feb-19 18:33N 53°42' E 009°30'1414.4
2015-Feb-19 17:33N 53°33' E 009°49'4 3.8
2015-Feb-19 16:29N 53°32' E 009°55'0 0.0
2015-Feb-19 15:32N 53°32' E 009°55'0 0.0
2015-Feb-19 14:32N 53°32' E 009°55'0 0.0
2015-Feb-19 13:29N 53°32' E 009°55'0 0.0
2015-Feb-19 12:32N 53°32' E 009°55'0 0.0
2015-Feb-19 11:32N 53°32' E 009°55'0 0.0
2015-Feb-19 10:29N 53°32' E 009°55'0 0.0
2015-Feb-19 09:29N 53°32' E 009°55'0 0.1
2015-Feb-19 08:32N 53°32' E 009°55'0 0.1
2015-Feb-19 07:32N 53°32' E 009°56'0 0.0
2015-Feb-19 06:32N 53°32' E 009°56'0 0.0
2015-Feb-19 05:32N 53°32' E 009°56'0 0.0
2015-Feb-19 04:29N 53°32' E 009°56'0 0.0
2015-Feb-19 03:32N 53°32' E 009°56'0 0.0
2015-Feb-19 02:32N 53°32' E 009°56'0 0.0
2015-Feb-19 01:32N 53°32' E 009°56'0 0.0
2015-Feb-19 00:29N 53°32' E 009°56'0 0.0
2015-Feb-18 23:32N 53°32' E 009°56'0 0.0
2015-Feb-18 22:29N 53°32' E 009°56'0 0.0
2015-Feb-18 21:32N 53°32' E 009°56'0 0.3
2015-Feb-18 20:33N 53°32' E 009°55'1 1.4
2015-Feb-18 19:32N 53°30' E 009°56'0 0.0
2015-Feb-18 18:30N 53°30' E 009°56'0 0.0
2015-Feb-18 17:29N 53°30' E 009°56'0 0.0
2015-Feb-18 16:33N 53°30' E 009°56'0 0.0
2015-Feb-18 15:29N 53°30' E 009°56'0 0.0
2015-Feb-18 14:31N 53°30' E 009°56'0 0.0
2015-Feb-18 13:30N 53°30' E 009°56'0 0.0
2015-Feb-18 12:32N 53°30' E 009°56'0 0.0
2015-Feb-18 11:29N 53°30' E 009°56'0 0.0
2015-Feb-18 10:33N 53°30' E 009°56'0 0.0
2015-Feb-18 09:31N 53°30' E 009°56'0 0.0
2015-Feb-18 08:33N 53°30' E 009°56'0 0.0
2015-Feb-18 07:31N 53°30' E 009°56'0 0.0
2015-Feb-18 06:29N 53°30' E 009°56'0 0.0
2015-Feb-18 05:33N 53°31' E 009°56'6 6.4
2015-Feb-18 04:33N 53°34' E 009°47'1111.3
2015-Feb-18 03:34N 53°40' E 009°31'1313.3
2015-Feb-18 02:33N 53°51' E 009°19'1212.3
2015-Feb-18 01:33N 53°51' E 008°58'1312.6
2015-Feb-18 00:34N 53°56' E 008°39'1515.0
2015-Feb-17 23:33N 53°60' E 008°14'1514.6
2015-Feb-17 22:33N 53°53' E 007°52'1414.1
2015-Feb-17 21:33N 53°45' E 008°12'1414.0
2015-Feb-17 20:33N 53°36' E 008°30'1 1.4
2015-Feb-17 19:32N 53°35' E 008°32'0 0.0
2015-Feb-17 17:32N 53°35' E 008°32'0 0.0
2015-Feb-17 16:32N 53°35' E 008°32'6 6.2
2015-Feb-17 15:33N 53°39' E 008°24'1413.9
2015-Feb-17 14:33N 53°49' E 008°07'10 9.0
2015-Feb-17 13:26N 53°58' E 007°59'1315.0
2015-Feb-17 12:34N 53°60' E 008°21'1616.0
2015-Feb-17 11:34N 53°52' E 008°45'1313.3
2015-Feb-17 10:33N 53°53' E 009°07'2 1.6
2015-Feb-17 09:33N 53°54' E 009°09'7 7.1
2015-Feb-17 08:33N 53°59' E 009°17'9 8.6
2015-Feb-17 07:32N 54°08' E 009°20'7 7.5
2015-Feb-17 06:33N 54°11' E 009°31'6 5.5
2015-Feb-17 05:29N 54°16' E 009°38'7 7.9
2015-Feb-17 04:33N 54°21' E 009°46'8 7.6
2015-Feb-17 03:33N 54°21' E 009°59'  

Dump ship's entire track history